sensor_id;sensor_type;location;lat;lon;timestamp;P1;durP1;ratioP1;P2;durP2;ratioP2
31974;SDS011;18500;43.618;1.474;2023-05-20T00:01:00;524.13;;;489.60;;
31974;SDS011;18500;43.618;1.474;2023-05-20T00:03:26;413.83;;;386.63;;
31974;SDS011;18500;43.618;1.474;2023-05-20T00:05:53;350.38;;;328.70;;
31974;SDS011;18500;43.618;1.474;2023-05-20T00:08:19;234.80;;;220.00;;
31974;SDS011;18500;43.618;1.474;2023-05-20T00:10:45;675.45;;;622.47;;
31974;SDS011;18500;43.618;1.474;2023-05-20T00:13:10;413.98;;;384.45;;
31974;SDS011;18500;43.618;1.474;2023-05-20T00:15:36;225.38;;;212.27;;
31974;SDS011;18500;43.618;1.474;2023-05-20T00:18:02;372.20;;;349.48;;
31974;SDS011;18500;43.618;1.474;2023-05-20T00:20:28;288.67;;;271.20;;
31974;SDS011;18500;43.618;1.474;2023-05-20T00:22:54;413.77;;;382.67;;
31974;SDS011;18500;43.618;1.474;2023-05-20T00:25:20;376.92;;;354.25;;
31974;SDS011;18500;43.618;1.474;2023-05-20T00:27:45;394.90;;;371.13;;
31974;SDS011;18500;43.618;1.474;2023-05-20T00:30:11;484.85;;;453.67;;
31974;SDS011;18500;43.618;1.474;2023-05-20T00:32:37;421.15;;;395.15;;
31974;SDS011;18500;43.618;1.474;2023-05-20T00:35:03;443.58;;;414.98;;
31974;SDS011;18500;43.618;1.474;2023-05-20T00:37:29;593.80;;;552.60;;
31974;SDS011;18500;43.618;1.474;2023-05-20T00:39:55;443.23;;;413.95;;
31974;SDS011;18500;43.618;1.474;2023-05-20T00:42:21;365.30;;;341.63;;
31974;SDS011;18500;43.618;1.474;2023-05-20T00:44:47;486.23;;;453.85;;
31974;SDS011;18500;43.618;1.474;2023-05-20T00:47:13;387.20;;;362.48;;
31974;SDS011;18500;43.618;1.474;2023-05-20T00:49:41;558.63;;;521.00;;
31974;SDS011;18500;43.618;1.474;2023-05-20T00:52:08;370.17;;;345.75;;
31974;SDS011;18500;43.618;1.474;2023-05-20T00:54:34;478.67;;;447.00;;
31974;SDS011;18500;43.618;1.474;2023-05-20T00:56:59;351.85;;;328.65;;
31974;SDS011;18500;43.618;1.474;2023-05-20T00:59:27;576.72;;;537.22;;
31974;SDS011;18500;43.618;1.474;2023-05-20T01:01:52;661.00;;;610.97;;
31974;SDS011;18500;43.618;1.474;2023-05-20T01:04:18;622.25;;;577.45;;
31974;SDS011;18500;43.618;1.474;2023-05-20T01:06:44;725.22;;;670.22;;
31974;SDS011;18500;43.618;1.474;2023-05-20T01:09:12;718.72;;;664.28;;
31974;SDS011;18500;43.618;1.474;2023-05-20T01:11:39;723.20;;;666.45;;
31974;SDS011;18500;43.618;1.474;2023-05-20T01:14:20;844.30;;;777.42;;
31974;SDS011;18500;43.618;1.474;2023-05-20T01:16:51;738.92;;;682.90;;
31974;SDS011;18500;43.618;1.474;2023-05-20T01:22:03;502.02;;;467.27;;
31974;SDS011;18500;43.618;1.474;2023-05-20T01:24:30;535.45;;;497.95;;
31974;SDS011;18500;43.618;1.474;2023-05-20T01:26:56;503.95;;;468.70;;
31974;SDS011;18500;43.618;1.474;2023-05-20T01:29:23;500.83;;;466.40;;
31974;SDS011;18500;43.618;1.474;2023-05-20T01:31:50;360.02;;;336.45;;
31974;SDS011;18500;43.618;1.474;2023-05-20T01:34:18;397.13;;;371.38;;
31974;SDS011;18500;43.618;1.474;2023-05-20T01:36:44;501.02;;;466.73;;
31974;SDS011;18500;43.618;1.474;2023-05-20T01:39:11;438.58;;;409.10;;
31974;SDS011;18500;43.618;1.474;2023-05-20T01:41:37;373.00;;;349.17;;
31974;SDS011;18500;43.618;1.474;2023-05-20T01:44:04;397.20;;;371.10;;
31974;SDS011;18500;43.618;1.474;2023-05-20T01:46:34;366.55;;;342.95;;
31974;SDS011;18500;43.618;1.474;2023-05-20T01:48:59;353.52;;;330.10;;
31974;SDS011;18500;43.618;1.474;2023-05-20T01:51:25;330.75;;;309.23;;
31974;SDS011;18500;43.618;1.474;2023-05-20T01:53:51;380.98;;;355.55;;
31974;SDS011;18500;43.618;1.474;2023-05-20T01:56:17;365.65;;;341.42;;
31974;SDS011;18500;43.618;1.474;2023-05-20T01:58:43;406.15;;;380.95;;
31974;SDS011;18500;43.618;1.474;2023-05-20T02:01:08;400.90;;;374.33;;
31974;SDS011;18500;43.618;1.474;2023-05-20T02:03:34;395.00;;;369.33;;
31974;SDS011;18500;43.618;1.474;2023-05-20T02:05:59;429.20;;;400.48;;
31974;SDS011;18500;43.618;1.474;2023-05-20T02:08:25;423.60;;;395.35;;
31974;SDS011;18500;43.618;1.474;2023-05-20T02:10:51;414.50;;;386.70;;
31974;SDS011;18500;43.618;1.474;2023-05-20T02:13:16;410.35;;;383.10;;
31974;SDS011;18500;43.618;1.474;2023-05-20T02:15:42;423.70;;;395.25;;
31974;SDS011;18500;43.618;1.474;2023-05-20T02:18:08;468.50;;;436.83;;
31974;SDS011;18500;43.618;1.474;2023-05-20T02:20:36;445.08;;;416.90;;
31974;SDS011;18500;43.618;1.474;2023-05-20T02:23:02;413.40;;;386.60;;
31974;SDS011;18500;43.618;1.474;2023-05-20T02:25:30;478.27;;;446.17;;
31974;SDS011;18500;43.618;1.474;2023-05-20T02:27:56;454.15;;;423.83;;
31974;SDS011;18500;43.618;1.474;2023-05-20T02:30:21;408.55;;;381.98;;
31974;SDS011;18500;43.618;1.474;2023-05-20T02:32:47;404.60;;;378.63;;
31974;SDS011;18500;43.618;1.474;2023-05-20T02:35:13;430.27;;;402.08;;
31974;SDS011;18500;43.618;1.474;2023-05-20T02:37:39;368.98;;;345.48;;
31974;SDS011;18500;43.618;1.474;2023-05-20T02:40:05;447.77;;;418.63;;
31974;SDS011;18500;43.618;1.474;2023-05-20T02:42:33;469.88;;;438.85;;
31974;SDS011;18500;43.618;1.474;2023-05-20T02:44:58;374.77;;;350.38;;
31974;SDS011;18500;43.618;1.474;2023-05-20T02:47:24;352.52;;;329.33;;
31974;SDS011;18500;43.618;1.474;2023-05-20T02:49:51;267.52;;;249.70;;
31974;SDS011;18500;43.618;1.474;2023-05-20T02:52:16;341.63;;;319.00;;
31974;SDS011;18500;43.618;1.474;2023-05-20T02:54:42;291.15;;;272.02;;
31974;SDS011;18500;43.618;1.474;2023-05-20T02:57:08;246.15;;;231.02;;
31974;SDS011;18500;43.618;1.474;2023-05-20T02:59:33;357.63;;;333.63;;
31974;SDS011;18500;43.618;1.474;2023-05-20T03:01:59;340.42;;;317.05;;
31974;SDS011;18500;43.618;1.474;2023-05-20T03:04:25;317.92;;;295.08;;
31974;SDS011;18500;43.618;1.474;2023-05-20T03:06:51;299.88;;;277.92;;
31974;SDS011;18500;43.618;1.474;2023-05-20T03:09:16;312.25;;;290.55;;
31974;SDS011;18500;43.618;1.474;2023-05-20T03:11:46;324.60;;;301.50;;
31974;SDS011;18500;43.618;1.474;2023-05-20T03:14:12;354.27;;;329.77;;
31974;SDS011;18500;43.618;1.474;2023-05-20T03:16:38;200.70;;;187.80;;
31974;SDS011;18500;43.618;1.474;2023-05-20T03:19:04;291.83;;;271.75;;
31974;SDS011;18500;43.618;1.474;2023-05-20T03:21:30;286.25;;;266.88;;
31974;SDS011;18500;43.618;1.474;2023-05-20T03:23:56;302.52;;;281.45;;
31974;SDS011;18500;43.618;1.474;2023-05-20T03:26:21;216.57;;;202.10;;
31974;SDS011;18500;43.618;1.474;2023-05-20T03:28:47;246.93;;;229.52;;
31974;SDS011;18500;43.618;1.474;2023-05-20T03:31:13;237.15;;;221.35;;
31974;SDS011;18500;43.618;1.474;2023-05-20T03:33:38;287.77;;;268.48;;
31974;SDS011;18500;43.618;1.474;2023-05-20T03:36:04;273.42;;;255.23;;
31974;SDS011;18500;43.618;1.474;2023-05-20T03:38:30;330.60;;;308.67;;
31974;SDS011;18500;43.618;1.474;2023-05-20T03:40:56;278.70;;;259.77;;
31974;SDS011;18500;43.618;1.474;2023-05-20T03:43:21;303.23;;;282.83;;
31974;SDS011;18500;43.618;1.474;2023-05-20T03:45:47;265.08;;;246.80;;
31974;SDS011;18500;43.618;1.474;2023-05-20T03:48:13;326.35;;;302.98;;
31974;SDS011;18500;43.618;1.474;2023-05-20T03:50:38;239.00;;;222.98;;
31974;SDS011;18500;43.618;1.474;2023-05-20T03:53:04;341.85;;;319.08;;
31974;SDS011;18500;43.618;1.474;2023-05-20T03:55:30;339.92;;;317.77;;
31974;SDS011;18500;43.618;1.474;2023-05-20T03:57:56;236.65;;;221.88;;
31974;SDS011;18500;43.618;1.474;2023-05-20T04:00:21;307.65;;;287.35;;
31974;SDS011;18500;43.618;1.474;2023-05-20T04:02:48;321.73;;;300.80;;
31974;SDS011;18500;43.618;1.474;2023-05-20T04:05:13;303.42;;;284.02;;
31974;SDS011;18500;43.618;1.474;2023-05-20T04:07:39;346.02;;;324.02;;
31974;SDS011;18500;43.618;1.474;2023-05-20T04:10:05;375.40;;;351.42;;
31974;SDS011;18500;43.618;1.474;2023-05-20T04:12:31;407.45;;;381.90;;
31974;SDS011;18500;43.618;1.474;2023-05-20T04:14:58;460.10;;;424.80;;
31974;SDS011;18500;43.618;1.474;2023-05-20T04:17:27;569.28;;;531.95;;
31974;SDS011;18500;43.618;1.474;2023-05-20T04:19:54;607.25;;;566.60;;
31974;SDS011;18500;43.618;1.474;2023-05-20T04:22:21;555.70;;;518.63;;
31974;SDS011;18500;43.618;1.474;2023-05-20T04:24:47;563.70;;;527.38;;
31974;SDS011;18500;43.618;1.474;2023-05-20T04:27:13;554.33;;;516.97;;
31974;SDS011;18500;43.618;1.474;2023-05-20T04:29:40;541.05;;;504.95;;
31974;SDS011;18500;43.618;1.474;2023-05-20T04:32:11;573.53;;;535.13;;
31974;SDS011;18500;43.618;1.474;2023-05-20T04:34:37;573.67;;;534.60;;
31974;SDS011;18500;43.618;1.474;2023-05-20T04:37:03;590.95;;;552.65;;
31974;SDS011;18500;43.618;1.474;2023-05-20T04:39:31;542.40;;;507.10;;
31974;SDS011;18500;43.618;1.474;2023-05-20T04:41:57;553.00;;;515.33;;
31974;SDS011;18500;43.618;1.474;2023-05-20T04:44:23;562.33;;;525.58;;
31974;SDS011;18500;43.618;1.474;2023-05-20T04:46:50;572.53;;;534.28;;
31974;SDS011;18500;43.618;1.474;2023-05-20T04:49:16;561.42;;;525.03;;
31974;SDS011;18500;43.618;1.474;2023-05-20T04:51:42;567.65;;;530.40;;
31974;SDS011;18500;43.618;1.474;2023-05-20T04:54:08;578.20;;;540.25;;
31974;SDS011;18500;43.618;1.474;2023-05-20T04:56:33;463.88;;;433.73;;
31974;SDS011;18500;43.618;1.474;2023-05-20T04:59:00;536.25;;;501.05;;
31974;SDS011;18500;43.618;1.474;2023-05-20T05:01:26;562.40;;;525.75;;
31974;SDS011;18500;43.618;1.474;2023-05-20T05:03:52;583.53;;;545.17;;
31974;SDS011;18500;43.618;1.474;2023-05-20T05:06:17;572.85;;;534.42;;
31974;SDS011;18500;43.618;1.474;2023-05-20T05:08:43;625.90;;;583.33;;
31974;SDS011;18500;43.618;1.474;2023-05-20T05:11:09;541.42;;;505.90;;
31974;SDS011;18500;43.618;1.474;2023-05-20T05:13:35;586.33;;;547.90;;
31974;SDS011;18500;43.618;1.474;2023-05-20T05:16:01;567.55;;;528.75;;
31974;SDS011;18500;43.618;1.474;2023-05-20T05:18:27;556.70;;;519.20;;
31974;SDS011;18500;43.618;1.474;2023-05-20T05:21:02;608.85;;;567.20;;
31974;SDS011;18500;43.618;1.474;2023-05-20T05:23:29;600.72;;;559.70;;
31974;SDS011;18500;43.618;1.474;2023-05-20T05:25:54;576.80;;;537.42;;
31974;SDS011;18500;43.618;1.474;2023-05-20T05:28:20;618.55;;;576.55;;
31974;SDS011;18500;43.618;1.474;2023-05-20T05:30:46;660.08;;;615.03;;
31974;SDS011;18500;43.618;1.474;2023-05-20T05:33:13;637.00;;;593.40;;
31974;SDS011;18500;43.618;1.474;2023-05-20T05:35:40;621.08;;;578.30;;
31974;SDS011;18500;43.618;1.474;2023-05-20T05:38:06;623.03;;;579.50;;
31974;SDS011;18500;43.618;1.474;2023-05-20T05:40:32;506.98;;;473.73;;
31974;SDS011;18500;43.618;1.474;2023-05-20T05:42:59;616.42;;;573.72;;
31974;SDS011;18500;43.618;1.474;2023-05-20T05:45:25;622.30;;;578.90;;
31974;SDS011;18500;43.618;1.474;2023-05-20T05:47:50;643.58;;;598.53;;
31974;SDS011;18500;43.618;1.474;2023-05-20T05:50:16;599.92;;;559.03;;
31974;SDS011;18500;43.618;1.474;2023-05-20T05:52:42;454.48;;;425.35;;
31974;SDS011;18500;43.618;1.474;2023-05-20T05:55:08;498.13;;;463.92;;
31974;SDS011;18500;43.618;1.474;2023-05-20T05:57:34;552.33;;;514.38;;
31974;SDS011;18500;43.618;1.474;2023-05-20T06:00:00;557.05;;;518.72;;
31974;SDS011;18500;43.618;1.474;2023-05-20T06:02:26;572.13;;;532.60;;
31974;SDS011;18500;43.618;1.474;2023-05-20T06:04:51;374.42;;;351.17;;
31974;SDS011;18500;43.618;1.474;2023-05-20T06:07:17;420.75;;;391.65;;
31974;SDS011;18500;43.618;1.474;2023-05-20T06:09:43;480.48;;;447.15;;
31974;SDS011;18500;43.618;1.474;2023-05-20T06:12:09;483.70;;;451.60;;
31974;SDS011;18500;43.618;1.474;2023-05-20T06:14:35;535.67;;;499.35;;
31974;SDS011;18500;43.618;1.474;2023-05-20T06:17:01;521.50;;;486.35;;
31974;SDS011;18500;43.618;1.474;2023-05-20T06:19:27;519.60;;;485.13;;
31974;SDS011;18500;43.618;1.474;2023-05-20T06:21:53;461.52;;;432.52;;
31974;SDS011;18500;43.618;1.474;2023-05-20T06:24:20;424.20;;;395.77;;
31974;SDS011;18500;43.618;1.474;2023-05-20T06:26:46;401.48;;;374.50;;
31974;SDS011;18500;43.618;1.474;2023-05-20T06:29:13;394.63;;;367.52;;
31974;SDS011;18500;43.618;1.474;2023-05-20T06:31:39;464.98;;;433.10;;
31974;SDS011;18500;43.618;1.474;2023-05-20T06:34:05;402.35;;;375.17;;
31974;SDS011;18500;43.618;1.474;2023-05-20T06:36:30;412.27;;;384.35;;
31974;SDS011;18500;43.618;1.474;2023-05-20T06:38:56;508.58;;;472.50;;
31974;SDS011;18500;43.618;1.474;2023-05-20T06:41:22;429.00;;;399.27;;
31974;SDS011;18500;43.618;1.474;2023-05-20T06:43:47;367.67;;;342.42;;
31974;SDS011;18500;43.618;1.474;2023-05-20T06:46:13;444.05;;;413.08;;
31974;SDS011;18500;43.618;1.474;2023-05-20T06:48:38;397.20;;;368.45;;
31974;SDS011;18500;43.618;1.474;2023-05-20T06:51:07;456.85;;;423.83;;
31974;SDS011;18500;43.618;1.474;2023-05-20T06:53:33;289.83;;;269.77;;
31974;SDS011;18500;43.618;1.474;2023-05-20T06:55:59;480.80;;;446.70;;
31974;SDS011;18500;43.618;1.474;2023-05-20T06:58:25;407.23;;;378.13;;
31974;SDS011;18500;43.618;1.474;2023-05-20T07:00:52;386.48;;;358.55;;
31974;SDS011;18500;43.618;1.474;2023-05-20T07:03:18;432.30;;;401.95;;
31974;SDS011;18500;43.618;1.474;2023-05-20T07:05:43;331.70;;;309.77;;
31974;SDS011;18500;43.618;1.474;2023-05-20T07:08:09;386.23;;;359.25;;
31974;SDS011;18500;43.618;1.474;2023-05-20T07:10:35;330.40;;;308.35;;
31974;SDS011;18500;43.618;1.474;2023-05-20T07:13:01;343.98;;;322.67;;
31974;SDS011;18500;43.618;1.474;2023-05-20T07:15:27;435.42;;;405.77;;
31974;SDS011;18500;43.618;1.474;2023-05-20T07:17:53;462.13;;;432.90;;
31974;SDS011;18500;43.618;1.474;2023-05-20T07:20:18;488.02;;;456.30;;
31974;SDS011;18500;43.618;1.474;2023-05-20T07:22:44;427.23;;;400.27;;
31974;SDS011;18500;43.618;1.474;2023-05-20T07:25:10;480.15;;;447.50;;
31974;SDS011;18500;43.618;1.474;2023-05-20T07:27:36;403.45;;;376.83;;
31974;SDS011;18500;43.618;1.474;2023-05-20T07:30:01;435.17;;;406.33;;
31974;SDS011;18500;43.618;1.474;2023-05-20T07:32:27;697.42;;;636.38;;
31974;SDS011;18500;43.618;1.474;2023-05-20T07:34:53;510.75;;;475.42;;
31974;SDS011;18500;43.618;1.474;2023-05-20T07:37:18;478.55;;;446.77;;
31974;SDS011;18500;43.618;1.474;2023-05-20T07:39:44;365.50;;;340.88;;
31974;SDS011;18500;43.618;1.474;2023-05-20T07:42:10;277.60;;;259.50;;
31974;SDS011;18500;43.618;1.474;2023-05-20T07:44:35;480.85;;;442.52;;
31974;SDS011;18500;43.618;1.474;2023-05-20T07:47:01;239.35;;;223.70;;
31974;SDS011;18500;43.618;1.474;2023-05-20T07:49:27;192.25;;;179.80;;
31974;SDS011;18500;43.618;1.474;2023-05-20T07:51:53;333.00;;;309.52;;
31974;SDS011;18500;43.618;1.474;2023-05-20T07:54:18;459.52;;;424.60;;
31974;SDS011;18500;43.618;1.474;2023-05-20T07:56:44;503.30;;;466.00;;
31974;SDS011;18500;43.618;1.474;2023-05-20T07:59:10;567.15;;;522.00;;
31974;SDS011;18500;43.618;1.474;2023-05-20T08:01:35;647.45;;;599.25;;
31974;SDS011;18500;43.618;1.474;2023-05-20T08:04:01;653.85;;;605.45;;
31974;SDS011;18500;43.618;1.474;2023-05-20T08:06:27;806.95;;;739.80;;
31974;SDS011;18500;43.618;1.474;2023-05-20T08:08:53;614.28;;;570.28;;
31974;SDS011;18500;43.618;1.474;2023-05-20T08:11:19;633.20;;;586.75;;
31974;SDS011;18500;43.618;1.474;2023-05-20T08:13:48;576.78;;;535.97;;
31974;SDS011;18500;43.618;1.474;2023-05-20T08:16:14;633.28;;;587.45;;
31974;SDS011;18500;43.618;1.474;2023-05-20T08:18:39;634.95;;;588.83;;
31974;SDS011;18500;43.618;1.474;2023-05-20T08:21:06;643.00;;;594.78;;
31974;SDS011;18500;43.618;1.474;2023-05-20T08:23:32;589.17;;;546.50;;
31974;SDS011;18500;43.618;1.474;2023-05-20T08:25:59;384.88;;;360.58;;
31974;SDS011;18500;43.618;1.474;2023-05-20T08:28:26;793.63;;;729.08;;
31974;SDS011;18500;43.618;1.474;2023-05-20T08:30:52;821.15;;;753.97;;
31974;SDS011;18500;43.618;1.474;2023-05-20T08:33:18;923.85;;;840.53;;
31974;SDS011;18500;43.618;1.474;2023-05-20T08:35:45;743.75;;;683.30;;
31974;SDS011;18500;43.618;1.474;2023-05-20T08:38:11;651.10;;;603.90;;
31974;SDS011;18500;43.618;1.474;2023-05-20T08:40:37;705.10;;;648.95;;
31974;SDS011;18500;43.618;1.474;2023-05-20T08:43:03;740.67;;;681.03;;
31974;SDS011;18500;43.618;1.474;2023-05-20T08:45:30;549.13;;;509.80;;
31974;SDS011;18500;43.618;1.474;2023-05-20T08:47:57;779.28;;;714.45;;
31974;SDS011;18500;43.618;1.474;2023-05-20T08:50:23;583.92;;;538.92;;
31974;SDS011;18500;43.618;1.474;2023-05-20T08:52:48;646.83;;;594.22;;
31974;SDS011;18500;43.618;1.474;2023-05-20T08:55:16;669.50;;;615.38;;
31974;SDS011;18500;43.618;1.474;2023-05-20T08:58:06;1104.40;;;982.08;;
31974;SDS011;18500;43.618;1.474;2023-05-20T09:00:31;1169.75;;;999.90;;
31974;SDS011;18500;43.618;1.474;2023-05-20T09:02:57;1019.03;;;914.00;;
31974;SDS011;18500;43.618;1.474;2023-05-20T09:05:24;1036.97;;;931.20;;
31974;SDS011;18500;43.618;1.474;2023-05-20T09:07:51;1002.25;;;903.28;;
31974;SDS011;18500;43.618;1.474;2023-05-20T09:10:16;1028.60;;;923.22;;
31974;SDS011;18500;43.618;1.474;2023-05-20T09:12:44;935.92;;;847.35;;
31974;SDS011;18500;43.618;1.474;2023-05-20T09:15:09;1142.05;;;999.90;;
31974;SDS011;18500;43.618;1.474;2023-05-20T09:17:35;1130.45;;;999.90;;
31974;SDS011;18500;43.618;1.474;2023-05-20T09:20:08;1187.55;;;999.90;;
31974;SDS011;18500;43.618;1.474;2023-05-20T09:22:35;1172.20;;;999.90;;
31974;SDS011;18500;43.618;1.474;2023-05-20T09:25:02;1146.80;;;999.90;;
31974;SDS011;18500;43.618;1.474;2023-05-20T09:27:28;1216.80;;;998.45;;
31974;SDS011;18500;43.618;1.474;2023-05-20T09:29:54;1227.85;;;999.90;;
31974;SDS011;18500;43.618;1.474;2023-05-20T09:32:20;1374.93;;;999.90;;
31974;SDS011;18500;43.618;1.474;2023-05-20T09:34:48;1050.60;;;927.22;;
31974;SDS011;18500;43.618;1.474;2023-05-20T09:37:16;1231.60;;;999.90;;
31974;SDS011;18500;43.618;1.474;2023-05-20T09:42:25;1265.40;;;999.90;;
31974;SDS011;18500;43.618;1.474;2023-05-20T09:44:53;1276.40;;;999.90;;
31974;SDS011;18500;43.618;1.474;2023-05-20T09:47:20;1139.97;;;999.08;;
31974;SDS011;18500;43.618;1.474;2023-05-20T09:49:48;1195.18;;;999.90;;
31974;SDS011;18500;43.618;1.474;2023-05-20T09:52:16;1319.07;;;999.90;;
31974;SDS011;18500;43.618;1.474;2023-05-20T09:54:43;1268.05;;;999.90;;
31974;SDS011;18500;43.618;1.474;2023-05-20T09:57:08;1015.33;;;898.95;;
31974;SDS011;18500;43.618;1.474;2023-05-20T09:59:35;1077.78;;;960.60;;
31974;SDS011;18500;43.618;1.474;2023-05-20T10:02:02;1256.55;;;999.90;;
31974;SDS011;18500;43.618;1.474;2023-05-20T10:04:29;1049.90;;;934.67;;
31974;SDS011;18500;43.618;1.474;2023-05-20T10:20:46;1336.15;;;999.90;;
31974;SDS011;18500;43.618;1.474;2023-05-20T10:25:54;1072.88;;;958.58;;
31974;SDS011;18500;43.618;1.474;2023-05-20T10:28:34;1305.93;;;999.90;;
31974;SDS011;18500;43.618;1.474;2023-05-20T10:31:00;1175.97;;;999.90;;
31974;SDS011;18500;43.618;1.474;2023-05-20T10:33:27;1230.40;;;999.90;;
31974;SDS011;18500;43.618;1.474;2023-05-20T10:35:58;1050.03;;;950.55;;
31974;SDS011;18500;43.618;1.474;2023-05-20T10:38:24;1053.28;;;952.65;;
31974;SDS011;18500;43.618;1.474;2023-05-20T10:40:50;1068.35;;;963.25;;
31974;SDS011;18500;43.618;1.474;2023-05-20T10:43:24;1015.33;;;910.60;;
31974;SDS011;18500;43.618;1.474;2023-05-20T10:45:55;993.78;;;902.70;;
31974;SDS011;18500;43.618;1.474;2023-05-20T10:48:29;873.90;;;799.05;;
31974;SDS011;18500;43.618;1.474;2023-05-20T10:50:57;865.20;;;788.05;;
31974;SDS011;18500;43.618;1.474;2023-05-20T10:53:37;1511.40;;;999.90;;
31974;SDS011;18500;43.618;1.474;2023-05-20T10:56:04;1004.70;;;896.70;;
31974;SDS011;18500;43.618;1.474;2023-05-20T10:58:37;1038.28;;;926.35;;
31974;SDS011;18500;43.618;1.474;2023-05-20T11:01:03;1560.80;;;999.90;;
31974;SDS011;18500;43.618;1.474;2023-05-20T11:03:29;1347.60;;;999.90;;
31974;SDS011;18500;43.618;1.474;2023-05-20T11:05:55;1667.78;;;999.90;;
31974;SDS011;18500;43.618;1.474;2023-05-20T11:08:21;1535.95;;;999.90;;
31974;SDS011;18500;43.618;1.474;2023-05-20T11:10:46;1536.82;;;999.90;;
31974;SDS011;18500;43.618;1.474;2023-05-20T11:13:12;1263.05;;;993.00;;
31974;SDS011;18500;43.618;1.474;2023-05-20T11:15:41;1211.72;;;988.50;;
31974;SDS011;18500;43.618;1.474;2023-05-20T11:18:09;1637.97;;;999.90;;
31974;SDS011;18500;43.618;1.474;2023-05-20T11:20:36;1591.88;;;999.90;;
31974;SDS011;18500;43.618;1.474;2023-05-20T11:23:01;1072.55;;;903.15;;
31974;SDS011;18500;43.618;1.474;2023-05-20T11:25:29;1097.88;;;952.63;;
31974;SDS011;18500;43.618;1.474;2023-05-20T11:27:56;1082.72;;;937.00;;
31974;SDS011;18500;43.618;1.474;2023-05-20T11:30:23;1400.85;;;999.90;;
31974;SDS011;18500;43.618;1.474;2023-05-20T11:32:59;979.25;;;871.75;;
31974;SDS011;18500;43.618;1.474;2023-05-20T11:35:26;982.40;;;881.63;;
31974;SDS011;18500;43.618;1.474;2023-05-20T11:38:04;855.90;;;776.63;;
31974;SDS011;18500;43.618;1.474;2023-05-20T11:40:32;1067.75;;;954.22;;
31974;SDS011;18500;43.618;1.474;2023-05-20T11:42:59;924.58;;;834.78;;
31974;SDS011;18500;43.618;1.474;2023-05-20T11:45:25;1351.97;;;993.35;;
31974;SDS011;18500;43.618;1.474;2023-05-20T11:48:01;1045.47;;;931.33;;
31974;SDS011;18500;43.618;1.474;2023-05-20T11:50:28;766.95;;;702.08;;
31974;SDS011;18500;43.618;1.474;2023-05-20T11:52:58;1346.65;;;999.90;;
31974;SDS011;18500;43.618;1.474;2023-05-20T11:55:25;1206.75;;;974.53;;
31974;SDS011;18500;43.618;1.474;2023-05-20T11:57:51;873.10;;;794.58;;
31974;SDS011;18500;43.618;1.474;2023-05-20T12:00:17;1309.95;;;969.45;;
31974;SDS011;18500;43.618;1.474;2023-05-20T12:02:43;1191.25;;;959.60;;
31974;SDS011;18500;43.618;1.474;2023-05-20T12:05:08;1997.28;;;999.90;;
31974;SDS011;18500;43.618;1.474;2023-05-20T12:07:34;1425.35;;;972.38;;
31974;SDS011;18500;43.618;1.474;2023-05-20T12:10:01;1724.47;;;999.90;;
31974;SDS011;18500;43.618;1.474;2023-05-20T12:12:27;1999.03;;;999.90;;
31974;SDS011;18500;43.618;1.474;2023-05-20T12:14:53;1957.32;;;999.90;;
31974;SDS011;18500;43.618;1.474;2023-05-20T12:17:18;1999.90;;;999.90;;
31974;SDS011;18500;43.618;1.474;2023-05-20T12:19:44;1346.82;;;999.90;;
31974;SDS011;18500;43.618;1.474;2023-05-20T12:22:10;1712.95;;;999.90;;
31974;SDS011;18500;43.618;1.474;2023-05-20T12:24:35;1894.38;;;999.90;;
31974;SDS011;18500;43.618;1.474;2023-05-20T12:27:01;1955.28;;;999.90;;
31974;SDS011;18500;43.618;1.474;2023-05-20T12:29:28;1016.90;;;914.08;;
31974;SDS011;18500;43.618;1.474;2023-05-20T12:31:53;991.35;;;893.00;;
31974;SDS011;18500;43.618;1.474;2023-05-20T12:34:19;1072.80;;;900.72;;
31974;SDS011;18500;43.618;1.474;2023-05-20T12:36:45;1904.20;;;999.90;;
31974;SDS011;18500;43.618;1.474;2023-05-20T12:39:11;1156.75;;;948.50;;
31974;SDS011;18500;43.618;1.474;2023-05-20T12:41:38;1673.25;;;999.90;;
31974;SDS011;18500;43.618;1.474;2023-05-20T12:44:06;1703.00;;;999.90;;
31974;SDS011;18500;43.618;1.474;2023-05-20T12:46:31;1871.85;;;999.90;;
31974;SDS011;18500;43.618;1.474;2023-05-20T12:48:57;1965.47;;;999.90;;
31974;SDS011;18500;43.618;1.474;2023-05-20T12:51:23;1920.07;;;999.90;;
31974;SDS011;18500;43.618;1.474;2023-05-20T12:53:49;1912.55;;;999.90;;
31974;SDS011;18500;43.618;1.474;2023-05-20T12:56:15;1999.90;;;999.90;;
31974;SDS011;18500;43.618;1.474;2023-05-20T12:58:40;1064.47;;;932.08;;
31974;SDS011;18500;43.618;1.474;2023-05-20T13:01:06;1133.97;;;937.85;;
31974;SDS011;18500;43.618;1.474;2023-05-20T13:03:32;1113.85;;;957.28;;
31974;SDS011;18500;43.618;1.474;2023-05-20T13:05:57;1135.85;;;990.90;;
31974;SDS011;18500;43.618;1.474;2023-05-20T13:08:23;1653.45;;;999.90;;
31974;SDS011;18500;43.618;1.474;2023-05-20T13:10:49;1916.78;;;999.90;;
31974;SDS011;18500;43.618;1.474;2023-05-20T13:13:14;1940.82;;;999.90;;
31974;SDS011;18500;43.618;1.474;2023-05-20T13:15:45;1710.30;;;999.90;;
31974;SDS011;18500;43.618;1.474;2023-05-20T13:18:14;1442.32;;;999.90;;
31974;SDS011;18500;43.618;1.474;2023-05-20T13:20:43;1102.53;;;943.85;;
31974;SDS011;18500;43.618;1.474;2023-05-20T13:23:09;1207.55;;;999.47;;
31974;SDS011;18500;43.618;1.474;2023-05-20T13:25:36;1232.57;;;999.90;;
31974;SDS011;18500;43.618;1.474;2023-05-20T13:28:02;1192.63;;;996.55;;
31974;SDS011;18500;43.618;1.474;2023-05-20T13:30:28;1128.63;;;965.28;;
31974;SDS011;18500;43.618;1.474;2023-05-20T13:32:54;1121.68;;;928.70;;
31974;SDS011;18500;43.618;1.474;2023-05-20T13:35:20;1593.10;;;999.90;;
31974;SDS011;18500;43.618;1.474;2023-05-20T13:37:46;1841.68;;;999.90;;
31974;SDS011;18500;43.618;1.474;2023-05-20T13:40:11;1810.22;;;999.90;;
31974;SDS011;18500;43.618;1.474;2023-05-20T13:42:37;1502.90;;;999.90;;
31974;SDS011;18500;43.618;1.474;2023-05-20T13:45:03;1667.82;;;999.90;;
31974;SDS011;18500;43.618;1.474;2023-05-20T13:47:30;1208.82;;;985.00;;
31974;SDS011;18500;43.618;1.474;2023-05-20T13:49:55;1721.22;;;999.90;;
31974;SDS011;18500;43.618;1.474;2023-05-20T13:52:21;1867.38;;;999.90;;
31974;SDS011;18500;43.618;1.474;2023-05-20T13:54:47;1467.80;;;999.90;;
31974;SDS011;18500;43.618;1.474;2023-05-20T13:57:13;1790.95;;;999.90;;
31974;SDS011;18500;43.618;1.474;2023-05-20T13:59:39;1759.85;;;999.90;;
31974;SDS011;18500;43.618;1.474;2023-05-20T14:02:05;1862.90;;;999.90;;
31974;SDS011;18500;43.618;1.474;2023-05-20T14:04:31;1958.57;;;999.90;;
31974;SDS011;18500;43.618;1.474;2023-05-20T14:07:02;1587.95;;;999.90;;
31974;SDS011;18500;43.618;1.474;2023-05-20T14:09:28;1627.95;;;999.90;;
31974;SDS011;18500;43.618;1.474;2023-05-20T14:11:54;1451.97;;;999.90;;